Time;durP1;ratioP1;P1;durP2;ratioP2;P2;SDS_P1;SDS_P2;PMS_P1;PMS_P2;Temp;Humidity;BMP_temperature;BMP_pressure;BME280_temperature;BME280_humidity;BME280_pressure;Samples;Min_cycle;Max_cycle;Signal;HPM_P1;HPM_P2
2022/07/26 00:04:49;;;;;;;5.90;3.00;;;;;;;22.32;46.31;98414.14;238627;1191;139267;-58
2022/07/26 00:09:52;;;;;;;4.70;3.00;;;;;;;22.28;46.48;98408.33;238768;1192;138917;-59
2022/07/26 00:14:55;;;;;;;4.40;2.80;;;;;;;22.22;46.53;98397.54;238809;1191;139103;-58
2022/07/26 00:19:58;;;;;;;5.20;2.50;;;;;;;22.15;46.58;98390.05;238789;1191;139050;-59
2022/07/26 00:25:04;;;;;;;4.70;3.20;;;;;;;22.08;46.75;98384.14;238548;1192;139133;-59
2022/07/26 00:30:09;;;;;;;10.80;3.30;;;;;;;22.03;46.76;98379.96;238545;1191;139670;-59
2022/07/26 00:35:12;;;;;;;5.40;3.00;;;;;;;21.96;46.92;98366.06;238906;1191;139612;-59
2022/07/26 00:40:15;;;;;;;7.50;3.30;;;;;;;21.91;47.10;98362.19;238600;1191;139330;-59
2022/07/26 00:45:18;;;;;;;4.80;3.20;;;;;;;21.83;47.16;98369.81;238769;1191;138846;-58
2022/07/26 00:50:21;;;;;;;6.40;3.10;;;;;;;21.73;47.33;98375.84;238802;1191;138963;-59
2022/07/26 00:55:24;;;;;;;3.30;2.80;;;;;;;21.67;47.65;98366.33;238736;1192;140536;-59
2022/07/26 01:00:28;;;;;;;6.20;3.10;;;;;;;21.62;47.66;98371.22;238776;1192;139489;-59
2022/07/26 01:05:31;;;;;;;5.80;3.30;;;;;;;21.57;47.80;98373.08;238923;1190;139193;-59
2022/07/26 01:10:34;;;;;;;5.70;3.40;;;;;;;21.54;48.11;98369.57;238594;1192;138925;-59
2022/07/26 01:15:37;;;;;;;4.60;3.30;;;;;;;21.50;48.30;98367.59;238803;1191;139639;-58
2022/07/26 01:20:41;;;;;;;5.50;3.10;;;;;;;21.45;48.51;98356.66;238709;1192;139239;-58
2022/07/26 01:25:45;;;;;;;6.70;3.60;;;;;;;21.38;48.56;98347.55;238699;1191;138780;-58
2022/07/26 01:30:50;;;;;;;6.80;3.10;;;;;;;21.30;48.72;98350.48;238629;1192;139802;-57
2022/07/26 01:35:53;;;;;;;4.70;3.60;;;;;;;21.21;48.79;98351.01;238904;1191;139164;-58
2022/07/26 01:40:56;;;;;;;4.80;3.30;;;;;;;21.12;49.03;98346.65;238779;1191;138404;-58
2022/07/26 01:45:59;;;;;;;6.00;3.00;;;;;;;21.04;49.22;98340.82;238774;1192;138609;-58
2022/07/26 01:51:02;;;;;;;7.00;3.40;;;;;;;20.96;49.26;98338.02;238620;1192;139766;-57
2022/07/26 01:56:06;;;;;;;6.80;3.30;;;;;;;20.87;49.54;98335.99;238731;1191;138996;-59
2022/07/26 02:01:09;;;;;;;7.90;4.30;;;;;;;20.78;49.68;98329.61;238728;1192;138815;-59
2022/07/26 02:06:12;;;;;;;8.80;4.40;;;;;;;20.69;49.75;98316.58;238652;1192;139531;-59
2022/07/26 02:11:16;;;;;;;7.60;4.80;;;;;;;20.61;49.89;98307.13;238796;1192;139107;-59
2022/07/26 02:16:19;;;;;;;10.90;4.90;;;;;;;20.53;50.14;98299.19;238704;1192;139099;-58
2022/07/26 02:21:22;;;;;;;9.00;5.00;;;;;;;20.43;50.14;98298.70;238771;1191;139775;-58
2022/07/26 02:26:25;;;;;;;6.10;4.40;;;;;;;20.36;50.40;98299.14;238823;1190;139146;-58
2022/07/26 02:31:28;;;;;;;7.70;4.50;;;;;;;20.31;50.42;98302.41;238867;1192;138931;-58
2022/07/26 02:36:34;;;;;;;11.10;4.80;;;;;;;20.26;50.68;98305.70;238764;1191;139015;-59
2022/07/26 02:41:37;;;;;;;11.00;4.20;;;;;;;20.24;50.73;98306.21;238714;1192;139410;-59
2022/07/26 02:46:40;;;;;;;11.10;7.20;;;;;;;20.20;50.88;98303.12;238710;1191;139370;-59
2022/07/26 02:51:43;;;;;;;9.60;6.20;;;;;;;20.16;51.20;98297.15;238792;1192;139448;-59
2022/07/26 02:56:46;;;;;;;7.70;5.10;;;;;;;20.14;51.16;98294.46;238622;1192;139812;-59
2022/07/26 03:01:49;;;;;;;8.30;5.00;;;;;;;20.13;51.28;98290.79;238752;1192;139850;-59
2022/07/26 03:06:52;;;;;;;9.10;4.80;;;;;;;20.10;51.37;98287.86;238844;1192;139902;-56
2022/07/26 03:11:55;;;;;;;6.50;4.80;;;;;;;20.06;51.52;98273.32;238850;1191;139324;-59
2022/07/26 03:16:58;;;;;;;7.10;5.20;;;;;;;20.04;51.66;98271.05;238812;1192;138837;-59
2022/07/26 03:22:01;;;;;;;7.70;4.60;;;;;;;20.01;51.66;98263.61;238587;1192;139316;-59
2022/07/26 03:27:04;;;;;;;6.70;4.10;;;;;;;20.01;51.72;98267.42;238692;1191;139079;-59
2022/07/26 03:32:07;;;;;;;5.40;3.60;;;;;;;19.99;51.84;98263.30;238514;1191;139808;-59
2022/07/26 03:37:10;;;;;;;5.60;3.90;;;;;;;19.97;51.82;98256.88;238728;1191;139108;-59
2022/07/26 03:42:13;;;;;;;7.90;4.00;;;;;;;19.98;51.87;98253.20;238866;1192;139059;-59
2022/07/26 03:47:16;;;;;;;6.80;3.70;;;;;;;20.00;52.10;98257.49;238869;1192;138480;-58
2022/07/26 03:52:19;;;;;;;10.50;4.00;;;;;;;20.02;52.34;98251.79;238645;1192;139633;-59
2022/07/26 03:57:22;;;;;;;5.80;3.80;;;;;;;20.06;52.39;98245.23;238593;1192;139879;-58
2022/07/26 04:02:29;;;;;;;6.20;3.80;;;;;;;20.10;52.42;98241.73;238793;1190;138923;-59
2022/07/26 04:07:32;;;;;;;6.70;3.90;;;;;;;20.14;52.55;98236.63;238466;1192;139152;-59
2022/07/26 04:12:36;;;;;;;9.00;3.80;;;;;;;20.19;52.64;98236.55;238722;1191;140975;-59
2022/07/26 04:17:39;;;;;;;5.20;3.60;;;;;;;20.25;52.71;98232.77;238808;1192;140175;-58
2022/07/26 04:22:43;;;;;;;6.40;3.70;;;;;;;20.30;52.88;98234.74;238693;1192;138927;-57
2022/07/26 04:27:46;;;;;;;8.00;3.80;;;;;;;20.34;52.79;98235.54;238491;1192;138844;-57
2022/07/26 04:32:49;;;;;;;4.00;3.30;;;;;;;20.39;52.84;98229.30;238362;1192;140065;-59
2022/07/26 04:37:52;;;;;;;9.00;3.70;;;;;;;20.45;53.07;98233.38;238483;1192;139511;-58
2022/07/26 04:42:55;;;;;;;6.50;4.10;;;;;;;20.54;53.25;98231.70;238826;1191;139672;-57
2022/07/26 04:47:58;;;;;;;6.60;3.90;;;;;;;20.67;53.36;98230.20;238902;1192;139516;-58
2022/07/26 04:53:01;;;;;;;6.30;4.10;;;;;;;20.84;53.41;98230.73;238706;1191;139700;-58
2022/07/26 04:58:05;;;;;;;7.10;3.70;;;;;;;20.99;53.39;98229.10;238770;1190;139154;-57
2022/07/26 05:03:08;;;;;;;15.30;4.00;;;;;;;21.15;53.46;98233.27;238668;1191;139284;-58
2022/07/26 05:08:13;;;;;;;31.10;5.50;;;;;;;21.32;53.40;98231.29;238700;1192;139467;-59
2022/07/26 05:13:16;;;;;;;63.30;8.20;;;;;;;21.48;53.29;98229.25;238708;1191;139214;-59
2022/07/26 05:18:31;;;;;;;79.30;10.70;;;;;;;21.63;53.34;98225.44;238731;1191;138991;-60
2022/07/26 05:23:50;;;;;;;75.00;9.60;;;;;;;21.80;53.28;98232.40;238704;1191;139146;-59
2022/07/26 05:28:53;;;;;;;82.50;10.80;;;;;;;21.98;53.24;98231.99;238648;1190;139371;-59
2022/07/26 05:33:56;;;;;;;73.10;10.20;;;;;;;22.21;52.98;98233.52;238803;1191;139640;-59
2022/07/26 05:38:59;;;;;;;64.90;9.90;;;;;;;22.43;52.87;98231.17;238683;1192;139374;-59
2022/07/26 05:44:02;;;;;;;69.50;9.30;;;;;;;22.72;52.86;98227.23;238514;1192;138760;-59
2022/07/26 05:49:05;;;;;;;45.80;9.30;;;;;;;22.87;52.57;98222.34;238576;1192;138971;-58
2022/07/26 05:54:08;;;;;;;42.80;7.70;;;;;;;23.00;52.41;98222.66;238740;1192;138909;-59
2022/07/26 05:59:12;;;;;;;40.10;7.30;;;;;;;23.10;52.27;98225.27;238875;1192;139983;-60
2022/07/26 06:04:15;;;;;;;41.60;8.10;;;;;;;23.27;52.17;98229.88;238804;1190;140719;-59
2022/07/26 06:09:18;;;;;;;33.50;6.90;;;;;;;23.47;52.15;98236.92;238653;1190;139571;-59
2022/07/26 06:14:22;;;;;;;28.80;6.70;;;;;;;23.66;51.93;98245.48;238710;1192;139192;-58
2022/07/26 06:19:25;;;;;;;18.40;5.60;;;;;;;23.85;51.70;98266.08;238720;1191;140071;-59
2022/07/26 06:24:28;;;;;;;15.40;5.00;;;;;;;24.05;51.27;98276.14;238627;1192;140287;-60
2022/07/26 06:29:32;;;;;;;17.50;6.10;;;;;;;24.21;50.99;98274.32;238654;1192;139130;-60
2022/07/26 06:34:35;;;;;;;12.30;5.00;;;;;;;24.37;50.53;98276.61;238383;1192;139127;-58
2022/07/26 06:39:37;;;;;;;11.30;5.30;;;;;;;24.52;50.33;98278.51;238562;1192;139927;-59
2022/07/26 06:44:41;;;;;;;14.10;4.90;;;;;;;24.61;49.72;98275.11;238769;1190;138968;-60
2022/07/26 06:49:44;;;;;;;11.30;6.50;;;;;;;24.68;49.29;98277.73;238616;1192;139753;-60
2022/07/26 06:54:47;;;;;;;11.30;5.20;;;;;;;24.80;49.08;98290.33;238679;1191;140105;-59
2022/07/26 06:59:50;;;;;;;14.00;5.20;;;;;;;24.94;48.82;98293.21;238780;1192;138748;-59
2022/07/26 07:04:53;;;;;;;8.70;4.50;;;;;;;25.08;48.60;98291.92;238412;1190;139080;-57
2022/07/26 07:09:56;;;;;;;10.70;5.30;;;;;;;25.19;48.33;98300.63;238716;1190;138635;-59
2022/07/26 07:15:00;;;;;;;13.80;6.20;;;;;;;25.26;48.15;98293.35;238621;1191;139698;-58
2022/07/26 07:20:04;;;;;;;10.80;5.90;;;;;;;25.35;48.15;98285.69;238476;1192;139366;-59
2022/07/26 07:25:07;;;;;;;14.20;5.80;;;;;;;25.42;48.13;98284.19;238264;1192;141848;-59
2022/07/26 07:30:11;;;;;;;9.80;6.40;;;;;;;25.48;48.22;98291.70;237692;1192;139260;-57
2022/07/26 07:35:14;;;;;;;13.90;6.30;;;;;;;25.60;48.06;98292.11;238876;1191;142458;-57
2022/07/26 07:40:17;;;;;;;8.50;5.80;;;;;;;25.74;47.96;98298.86;238794;1191;139302;-59
2022/07/26 07:45:20;;;;;;;12.50;6.50;;;;;;;25.88;47.91;98312.64;238592;1191;139435;-59
2022/07/26 07:50:23;;;;;;;12.00;6.80;;;;;;;26.02;47.69;98326.13;238603;1191;139261;-59
2022/07/26 07:55:30;;;;;;;11.20;6.90;;;;;;;26.11;47.67;98331.61;238717;1192;139783;-60
2022/07/26 08:00:46;;;;;;;11.90;6.70;;;;;;;26.20;47.55;98337.27;238659;1191;139488;-59
2022/07/26 08:05:49;;;;;;;15.40;7.90;;;;;;;26.30;47.53;98350.34;238751;1190;139355;-57
2022/07/26 08:10:52;;;;;;;15.20;8.00;;;;;;;26.39;47.43;98353.42;238634;1192;140551;-59
2022/07/26 08:15:55;;;;;;;13.00;7.30;;;;;;;26.47;47.44;98353.17;238778;1191;139681;-59
2022/07/26 08:21:02;;;;;;;13.20;7.30;;;;;;;26.59;47.56;98356.92;238678;1191;139024;-59
2022/07/26 08:26:06;;;;;;;11.10;8.10;;;;;;;26.68;47.40;98363.73;238524;1191;140106;-59
2022/07/26 08:31:09;;;;;;;14.20;7.50;;;;;;;26.74;47.35;98372.92;238405;1192;140416;-59
2022/07/26 08:36:12;;;;;;;10.90;7.00;;;;;;;26.77;47.57;98382.73;238339;1192;141222;-59
2022/07/26 08:41:16;;;;;;;11.90;8.20;;;;;;;26.77;47.70;98393.24;238513;1193;139776;-59
2022/07/26 08:46:23;;;;;;;13.30;8.90;;;;;;;26.75;47.70;98406.14;238456;1191;139519;-58
2022/07/26 08:51:30;;;;;;;14.40;9.00;;;;;;;26.67;47.81;98422.29;238675;1191;139046;-57
2022/07/26 08:56:35;;;;;;;19.50;9.70;;;;;;;26.54;48.02;98423.16;238662;1191;139100;-59
2022/07/26 09:01:56;;;;;;;12.90;9.40;;;;;;;26.52;48.53;98430.10;238757;1190;140510;-59
2022/07/26 09:07:06;;;;;;;16.40;10.90;;;;;;;26.53;48.70;98449.41;238768;1192;140002;-59
2022/07/26 09:12:17;;;;;;;16.10;11.80;;;;;;;26.47;48.73;98457.92;238706;1191;139463;-59
2022/07/26 09:17:22;;;;;;;18.20;10.60;;;;;;;26.34;48.82;98466.19;238872;1191;139831;-60
2022/07/26 09:22:25;;;;;;;;;;;;;;;26.18;49.16;98474.52;238791;1191;139205;-60
2022/07/26 09:27:35;;;;;;;15.40;13.10;;;;;;;26.05;49.33;98475.73;238778;1192;125121;-59
2022/07/26 09:32:38;;;;;;;14.40;10.90;;;;;;;25.97;49.38;98481.27;238756;1191;140037;-59
2022/07/26 09:37:43;;;;;;;14.90;12.20;;;;;;;26.00;49.54;98487.61;238852;1191;139629;-59
2022/07/26 09:42:54;;;;;;;15.80;12.30;;;;;;;26.03;49.75;98491.52;238800;1191;140091;-60
2022/07/26 09:47:57;;;;;;;18.70;12.10;;;;;;;26.07;49.88;98498.83;238796;1191;140854;-59
2022/07/26 09:53:02;;;;;;;13.20;11.80;;;;;;;26.05;49.66;98513.64;238610;1191;140249;-59
2022/07/26 09:58:06;;;;;;;14.70;10.60;;;;;;;25.89;49.74;98520.85;238747;1190;139479;-60
2022/07/26 10:03:10;;;;;;;14.40;11.00;;;;;;;25.78;49.81;98527.27;238532;1192;139748;-59
2022/07/26 10:08:13;;;;;;;14.30;11.00;;;;;;;25.73;50.19;98529.84;238366;1192;139786;-59
2022/07/26 10:13:16;;;;;;;12.30;10.20;;;;;;;25.71;50.08;98530.05;238430;1192;139343;-57
2022/07/26 10:18:34;;;;;;;15.60;10.60;;;;;;;25.65;50.13;98538.63;238451;1192;139841;-59
2022/07/26 10:23:46;;;;;;;20.00;11.00;;;;;;;25.60;50.27;98543.48;238728;1192;139588;-59
2022/07/26 10:28:49;;;;;;;12.70;10.30;;;;;;;25.56;50.31;98545.58;238772;1190;139700;-58
2022/07/26 10:33:54;;;;;;;12.60;10.60;;;;;;;25.52;50.43;98554.46;238667;1192;139153;-58
2022/07/26 10:38:59;;;;;;;17.60;11.20;;;;;;;25.47;50.72;98557.59;238591;1191;139041;-58
2022/07/26 10:44:28;;;;;;;16.30;12.40;;;;;;;25.49;50.74;98566.31;238595;1192;140473;-59
2022/07/26 10:49:55;;;;;;;14.20;12.70;;;;;;;25.47;50.82;98576.29;238598;1192;139288;-57
2022/07/26 10:54:58;;;;;;;14.40;12.50;;;;;;;25.41;51.03;98578.80;238834;1191;140565;-58
2022/07/26 11:00:12;;;;;;;14.50;12.00;;;;;;;25.35;51.18;98581.41;238801;1191;139249;-60
2022/07/26 11:05:19;;;;;;;11.70;10.20;;;;;;;25.24;51.23;98581.52;238763;1190;139128;-60
2022/07/26 11:10:43;;;;;;;12.40;9.50;;;;;;;25.15;51.42;98584.34;238824;1191;139304;-60
2022/07/26 11:15:57;;;;;;;10.60;9.50;;;;;;;25.10;51.50;98587.73;238778;1191;139122;-59
2022/07/26 11:21:13;;;;;;;12.70;10.30;;;;;;;25.06;51.61;98598.21;238576;1191;139418;-59
2022/07/26 11:26:18;;;;;;;11.70;10.20;;;;;;;25.06;51.59;98597.91;238796;1190;139586;-60
2022/07/26 11:31:25;;;;;;;12.70;10.60;;;;;;;24.99;51.70;98604.11;238776;1191;141163;-59
2022/07/26 11:36:50;;;;;;;12.20;10.70;;;;;;;24.90;51.93;98600.63;238504;1192;209573;-60
2022/07/26 11:42:00;;;;;;;;;;;;;;;24.84;52.28;98607.02;238298;1192;140315;-60
2022/07/26 11:47:15;;;;;;;15.60;11.00;;;;;;;24.74;52.44;98609.44;238400;1191;125408;-59
2022/07/26 11:52:18;;;;;;;14.40;11.10;;;;;;;24.70;52.58;98602.30;238741;1191;140535;-61
2022/07/26 11:57:28;;;;;;;12.00;10.70;;;;;;;24.74;52.71;98603.01;238759;1191;139627;-58
2022/07/26 12:02:32;;;;;;;15.20;10.90;;;;;;;24.78;52.79;98602.19;238756;1192;140962;-59
2022/07/26 12:07:35;;;;;;;12.80;9.70;;;;;;;24.81;52.90;98599.45;238715;1191;140055;-59
2022/07/26 12:12:39;;;;;;;11.70;8.90;;;;;;;24.80;52.97;98596.89;238748;1192;139605;-59
2022/07/26 12:17:58;;;;;;;14.00;9.10;;;;;;;24.78;53.06;98597.41;238826;1192;139614;-60
2022/07/26 12:23:04;;;;;;;9.70;8.70;;;;;;;24.76;53.09;98601.92;238542;1191;139346;-60
2022/07/26 12:28:07;;;;;;;11.20;7.70;;;;;;;24.64;53.09;98593.12;238720;1190;139197;-60
2022/07/26 12:33:10;;;;;;;10.10;6.70;;;;;;;24.54;53.35;98596.42;238745;1192;139286;-60
2022/07/26 12:38:13;;;;;;;12.10;6.50;;;;;;;24.47;53.80;98590.78;238655;1191;139410;-59
2022/07/26 12:43:16;;;;;;;7.80;7.00;;;;;;;24.48;54.19;98593.09;238686;1191;139623;-59
2022/07/26 12:48:19;;;;;;;19.90;13.90;;;;;;;24.50;54.27;98600.20;238768;1191;139867;-60
2022/07/26 12:53:22;;;;;;;9.70;7.00;;;;;;;24.50;54.66;98600.86;238787;1190;142291;-60
2022/07/26 12:58:25;;;;;;;9.20;7.30;;;;;;;24.51;54.82;98603.13;238676;1191;139069;-60
2022/07/26 13:03:27;;;;;;;9.60;6.80;;;;;;;24.47;54.99;98600.40;238803;1191;139103;-60
2022/07/26 13:08:31;;;;;;;8.50;7.20;;;;;;;24.34;55.14;98608.53;238789;1190;141163;-60
2022/07/26 13:13:33;;;;;;;8.30;6.60;;;;;;;24.18;55.57;98609.05;238852;1190;139342;-59
2022/07/26 13:18:36;;;;;;;7.80;6.00;;;;;;;24.05;56.00;98613.05;238853;1191;141308;-58
2022/07/26 13:23:39;;;;;;;9.20;6.80;;;;;;;23.99;56.43;98614.94;238902;1191;140401;-60
2022/07/26 13:28:42;;;;;;;10.30;7.10;;;;;;;23.93;56.78;98622.20;238815;1191;139812;-60
2022/07/26 13:33:45;;;;;;;6.70;4.80;;;;;;;23.90;57.14;98628.21;238819;1191;139663;-60
2022/07/26 13:38:48;;;;;;;5.60;3.90;;;;;;;23.82;57.10;98631.64;238663;1192;141194;-61
2022/07/26 13:43:52;;;;;;;5.40;3.80;;;;;;;23.69;57.26;98646.14;238829;1191;139344;-60
2022/07/26 13:48:57;;;;;;;8.30;3.80;;;;;;;23.53;57.55;98665.45;238646;1192;139203;-61
2022/07/26 13:54:03;;;;;;;4.40;2.80;;;;;;;23.34;57.83;98674.32;238962;1192;139956;-61
2022/07/26 13:59:06;;;;;;;5.20;2.70;;;;;;;23.18;58.12;98669.90;238846;1192;139669;-61
2022/07/26 14:04:09;;;;;;;6.50;2.90;;;;;;;23.03;58.35;98687.73;238698;1192;139383;-59
2022/07/26 14:09:15;;;;;;;4.10;2.60;;;;;;;22.88;58.44;98693.66;238643;1192;140350;-58
2022/07/26 14:14:18;;;;;;;4.00;2.80;;;;;;;22.74;58.61;98702.59;238303;1192;140778;-58
2022/07/26 14:19:21;;;;;;;4.80;2.70;;;;;;;22.68;58.91;98707.85;238482;1192;141407;-57
2022/07/26 14:24:24;;;;;;;3.00;2.40;;;;;;;22.62;59.06;98709.93;238685;1191;140300;-59
2022/07/26 14:29:27;;;;;;;4.00;2.60;;;;;;;22.65;59.24;98713.27;238871;1192;139462;-59
2022/07/26 14:34:30;;;;;;;5.80;2.70;;;;;;;22.63;58.89;98718.52;238763;1191;139813;-59
2022/07/26 14:39:33;;;;;;;3.40;2.50;;;;;;;22.53;58.76;98716.29;238642;1192;139678;-58
2022/07/26 14:44:36;;;;;;;5.10;2.40;;;;;;;22.44;58.47;98716.65;238646;1192;140249;-59
2022/07/26 14:49:46;;;;;;;4.00;2.90;;;;;;;22.31;58.42;98716.83;238178;1192;139560;-59
2022/07/26 14:54:49;;;;;;;3.60;2.80;;;;;;;22.24;58.53;98713.89;238258;1192;139200;-60
2022/07/26 14:59:52;;;;;;;4.80;2.90;;;;;;;22.21;58.92;98705.39;238394;1193;139679;-59
2022/07/26 15:04:56;;;;;;;4.90;3.00;;;;;;;22.25;59.19;98707.81;238813;1191;139382;-60
2022/07/26 15:09:59;;;;;;;5.90;3.00;;;;;;;22.33;59.41;98713.44;238768;1191;140047;-59
2022/07/26 15:15:03;;;;;;;5.40;3.50;;;;;;;22.40;59.73;98714.38;238438;1192;139461;-58
2022/07/26 15:20:06;;;;;;;7.60;3.90;;;;;;;22.46;59.80;98715.94;238320;1191;139520;-59
2022/07/26 15:25:09;;;;;;;6.80;4.10;;;;;;;22.51;59.95;98723.20;238782;1192;139065;-60
2022/07/26 15:30:13;;;;;;;6.10;4.30;;;;;;;22.56;60.14;98727.73;238768;1191;139614;-60
2022/07/26 15:35:16;;;;;;;7.10;4.50;;;;;;;22.59;60.22;98724.06;238814;1192;139610;-59
2022/07/26 15:40:19;;;;;;;5.30;4.20;;;;;;;22.69;60.24;98716.13;238534;1192;139272;-59
2022/07/26 15:45:23;;;;;;;8.00;4.30;;;;;;;22.73;60.22;98718.17;238786;1191;139647;-60
2022/07/26 15:50:26;;;;;;;6.50;4.60;;;;;;;22.73;60.22;98727.92;238546;1191;139036;-57
2022/07/26 15:55:29;;;;;;;7.60;5.10;;;;;;;22.65;60.22;98732.63;238600;1192;139700;-59
2022/07/26 16:00:32;;;;;;;7.30;4.90;;;;;;;22.62;60.33;98735.13;238769;1191;140982;-60
2022/07/26 16:05:35;;;;;;;8.00;5.40;;;;;;;22.63;60.47;98729.00;238886;1192;139787;-60
2022/07/26 16:10:38;;;;;;;7.10;5.50;;;;;;;22.67;60.59;98730.50;238543;1191;140187;-60
2022/07/26 16:15:41;;;;;;;7.20;6.00;;;;;;;22.67;60.72;98736.91;238402;1192;139134;-60
2022/07/26 16:20:45;;;;;;;11.40;6.60;;;;;;;22.63;60.91;98744.91;238238;1192;139581;-60
2022/07/26 16:25:48;;;;;;;9.90;7.20;;;;;;;22.60;60.90;98746.42;238057;1193;140335;-60
2022/07/26 16:30:51;;;;;;;8.90;6.30;;;;;;;22.55;61.02;98748.28;238286;1192;139171;-61
2022/07/26 16:35:54;;;;;;;9.20;6.50;;;;;;;22.54;61.10;98739.64;238892;1191;141080;-59
2022/07/26 16:40:57;;;;;;;9.90;6.90;;;;;;;22.55;61.13;98739.02;238659;1192;139618;-61
2022/07/26 16:46:01;;;;;;;8.50;7.10;;;;;;;22.56;61.17;98733.54;238617;1190;139670;-60
2022/07/26 16:51:04;;;;;;;9.30;6.40;;;;;;;22.55;61.25;98729.88;238821;1192;139536;-60
2022/07/26 16:56:06;;;;;;;9.60;6.40;;;;;;;22.53;61.25;98731.16;238797;1191;140930;-59
2022/07/26 17:01:11;;;;;;;10.50;5.40;;;;;;;22.51;61.03;98730.27;238786;1191;141442;-59
2022/07/26 17:06:14;;;;;;;8.70;6.00;;;;;;;22.53;60.94;98734.19;238731;1191;139482;-60
2022/07/26 17:11:17;;;;;;;9.40;6.00;;;;;;;22.53;60.82;98735.48;238779;1190;139410;-58
2022/07/26 17:16:20;;;;;;;11.10;6.70;;;;;;;22.53;60.90;98736.52;238513;1192;139495;-60
2022/07/26 17:21:26;;;;;;;12.70;6.80;;;;;;;22.51;60.87;98735.33;238754;1192;138718;-60
2022/07/26 17:26:29;;;;;;;8.50;6.30;;;;;;;22.45;60.74;98737.84;238777;1191;139235;-60
2022/07/26 17:31:32;;;;;;;10.00;6.10;;;;;;;22.39;60.71;98736.91;238776;1192;138860;-60
2022/07/26 17:36:35;;;;;;;13.50;6.10;;;;;;;22.36;60.74;98736.49;238645;1192;140422;-61
2022/07/26 17:41:38;;;;;;;11.60;6.80;;;;;;;22.35;60.79;98740.39;238498;1193;140059;-61
2022/07/26 17:46:42;;;;;;;10.90;7.20;;;;;;;22.32;60.84;98741.88;238405;1192;139460;-59
2022/07/26 17:51:45;;;;;;;11.10;7.00;;;;;;;22.29;60.92;98744.48;238689;1191;140066;-57
2022/07/26 17:56:48;;;;;;;8.60;7.60;;;;;;;22.26;60.92;98750.38;238662;1191;141954;-58
2022/07/26 18:01:51;;;;;;;10.10;6.70;;;;;;;22.22;61.06;98750.81;238534;1191;139591;-58
2022/07/26 18:06:55;;;;;;;12.60;7.20;;;;;;;22.18;61.11;98749.94;238601;1191;140104;-59
2022/07/26 18:11:58;;;;;;;14.50;7.20;;;;;;;22.16;61.12;98754.75;238770;1192;139310;-59
2022/07/26 18:17:01;;;;;;;10.40;6.90;;;;;;;22.10;61.41;98760.63;238528;1192;139192;-58
2022/07/26 18:22:04;;;;;;;10.60;6.80;;;;;;;22.03;61.48;98758.58;238726;1192;139733;-59
2022/07/26 18:27:08;;;;;;;9.50;7.00;;;;;;;21.97;61.40;98767.77;238721;1192;139291;-59
2022/07/26 18:32:10;;;;;;;10.50;6.90;;;;;;;21.88;61.34;98767.80;238645;1192;138504;-57
2022/07/26 18:37:13;;;;;;;10.00;6.40;;;;;;;21.79;61.44;98768.71;238492;1192;140549;-58
2022/07/26 18:42:16;;;;;;;10.20;7.00;;;;;;;21.70;61.61;98766.27;238703;1192;139986;-58
2022/07/26 18:47:19;;;;;;;9.80;7.50;;;;;;;21.68;61.80;98772.16;238874;1191;236175;-59
2022/07/26 18:52:22;;;;;;;9.40;7.80;;;;;;;21.65;61.84;98773.66;238702;1192;139295;-59
2022/07/26 18:57:35;;;;;;;11.20;7.70;;;;;;;21.62;61.75;98770.98;238481;1192;139201;-57
2022/07/26 19:02:38;;;;;;;9.60;7.30;;;;;;;21.54;61.82;98776.98;238683;1192;139413;-59
2022/07/26 19:07:42;;;;;;;10.80;6.80;;;;;;;21.52;61.77;98778.81;238530;1192;140208;-58
2022/07/26 19:12:47;;;;;;;8.90;6.40;;;;;;;21.50;61.90;98776.86;238618;1192;139333;-59
2022/07/26 19:17:50;;;;;;;13.90;6.90;;;;;;;21.49;61.82;98769.55;238891;1191;139838;-60
2022/07/26 19:22:53;;;;;;;9.60;7.10;;;;;;;21.47;61.69;98770.61;238754;1192;138828;-59
2022/07/26 19:27:56;;;;;;;10.90;6.50;;;;;;;21.44;61.64;98774.77;238597;1191;229560;-58
2022/07/26 19:32:59;;;;;;;9.40;6.60;;;;;;;21.37;61.56;98773.79;238706;1192;139972;-58
2022/07/26 19:38:02;;;;;;;8.20;5.40;;;;;;;21.33;61.53;98768.27;238566;1192;139598;-59
2022/07/26 19:43:05;;;;;;;11.00;6.10;;;;;;;21.31;61.44;98766.16;238687;1192;139740;-59
2022/07/26 19:48:08;;;;;;;9.30;6.00;;;;;;;21.33;61.42;98759.70;238681;1192;139750;-59
2022/07/26 19:53:11;;;;;;;10.70;5.90;;;;;;;21.33;61.39;98760.08;238620;1191;139614;-59
2022/07/26 19:58:14;;;;;;;10.60;6.40;;;;;;;21.29;61.22;98762.16;238683;1192;139865;-60
2022/07/26 20:03:17;;;;;;;8.80;6.20;;;;;;;21.27;61.31;98763.17;238833;1192;139513;-59
2022/07/26 20:08:20;;;;;;;9.40;6.30;;;;;;;21.26;61.33;98764.84;238751;1190;138906;-60
2022/07/26 20:13:24;;;;;;;10.40;6.60;;;;;;;21.26;61.32;98763.38;238611;1191;139945;-59
2022/07/26 20:18:29;;;;;;;10.00;6.50;;;;;;;21.25;61.25;98761.56;238334;1192;139752;-60
2022/07/26 20:23:32;;;;;;;;;;;;;;;21.26;61.44;98761.42;238337;1193;139315;-60
2022/07/26 20:28:35;;;;;;;15.50;7.50;;;;;;;21.27;61.53;98765.11;238488;1192;125616;-58
2022/07/26 20:33:38;;;;;;;11.50;7.60;;;;;;;21.22;61.52;98770.46;238596;1192;139491;-60
2022/07/26 20:38:41;;;;;;;18.00;8.00;;;;;;;21.17;61.52;98775.98;238517;1192;139944;-59
2022/07/26 20:43:47;;;;;;;13.70;6.70;;;;;;;21.12;61.63;98782.45;238787;1191;139526;-60
2022/07/26 20:48:51;;;;;;;11.20;6.60;;;;;;;21.07;61.56;98783.95;238556;1191;140063;-60
2022/07/26 20:53:54;;;;;;;12.00;7.00;;;;;;;21.03;61.66;98783.61;238849;1192;140177;-60
2022/07/26 20:59:00;;;;;;;9.90;7.20;;;;;;;20.97;61.72;98785.40;238491;1192;140697;-61
2022/07/26 21:04:03;;;;;;;15.50;9.20;;;;;;;20.90;61.77;98787.71;238725;1190;139955;-60
2022/07/26 21:09:06;;;;;;;14.00;7.90;;;;;;;20.83;61.66;98794.61;238614;1191;139918;-59
2022/07/26 21:14:11;;;;;;;17.80;8.20;;;;;;;20.73;61.82;98794.42;238615;1191;139338;-60
2022/07/26 21:19:14;;;;;;;16.80;7.50;;;;;;;20.73;61.91;98790.13;238708;1191;141254;-60
2022/07/26 21:24:19;;;;;;;14.60;8.30;;;;;;;20.74;62.12;98788.23;238785;1191;140853;-60
2022/07/26 21:29:22;;;;;;;13.60;8.80;;;;;;;20.71;62.19;98791.81;238813;1192;139466;-61
2022/07/26 21:34:24;;;;;;;16.90;8.70;;;;;;;20.71;62.39;98797.70;238844;1192;139367;-60
2022/07/26 21:39:27;;;;;;;12.30;8.90;;;;;;;20.73;62.29;98800.07;238535;1192;139716;-60
2022/07/26 21:44:30;;;;;;;10.90;8.30;;;;;;;20.69;62.36;98805.61;238504;1192;140164;-61
2022/07/26 21:49:34;;;;;;;13.70;8.90;;;;;;;20.68;62.43;98804.39;238571;1192;140809;-61
2022/07/26 21:54:37;;;;;;;12.30;8.90;;;;;;;20.68;62.42;98807.94;238714;1191;139995;-59
2022/07/26 21:59:39;;;;;;;13.00;8.60;;;;;;;20.66;62.58;98813.84;238802;1192;139494;-61
2022/07/26 22:04:44;;;;;;;13.60;9.00;;;;;;;20.64;62.53;98805.38;238775;1192;140156;-60
2022/07/26 22:09:47;;;;;;;11.60;7.80;;;;;;;20.60;62.65;98807.23;238809;1191;138993;-60
2022/07/26 22:14:50;;;;;;;8.80;7.20;;;;;;;20.58;62.57;98807.17;238728;1191;139389;-61
2022/07/26 22:19:56;;;;;;;10.50;6.90;;;;;;;20.56;62.50;98805.16;238695;1191;140261;-59
2022/07/26 22:24:59;;;;;;;12.80;8.50;;;;;;;20.54;62.54;98812.38;238838;1191;139690;-59
2022/07/26 22:30:03;;;;;;;12.40;7.70;;;;;;;20.50;62.46;98806.63;238792;1191;139403;-59
2022/07/26 22:35:06;;;;;;;12.40;8.00;;;;;;;20.44;62.44;98812.63;238546;1192;139821;-60
2022/07/26 22:40:09;;;;;;;11.00;7.90;;;;;;;20.38;62.47;98808.31;238715;1191;140754;-58
2022/07/26 22:45:13;;;;;;;9.50;7.40;;;;;;;20.28;62.54;98806.09;238602;1191;139518;-57
2022/07/26 22:50:16;;;;;;;12.60;8.10;;;;;;;20.29;62.59;98800.04;238692;1191;141549;-59
2022/07/26 22:55:20;;;;;;;13.20;8.00;;;;;;;20.30;62.72;98802.81;238861;1191;139937;-60
2022/07/26 23:00:23;;;;;;;13.20;8.10;;;;;;;20.30;62.71;98801.05;238681;1191;139061;-58
2022/07/26 23:05:26;;;;;;;12.50;8.50;;;;;;;20.28;62.76;98802.64;239017;1191;139249;-60
2022/07/26 23:10:48;;;;;;;12.10;7.50;;;;;;;20.24;62.61;98805.15;238609;1192;138874;-60